createdAt,value
2022-12-04T00:01:04.027Z,58.61
2022-12-04T00:06:12.050Z,58.36
2022-12-04T00:11:20.917Z,58.51
2022-12-04T00:16:29.927Z,58.58
2022-12-04T00:21:37.426Z,58.63
2022-12-04T00:26:45.047Z,58.13
2022-12-04T00:31:52.198Z,58.34
2022-12-04T00:36:59.077Z,58.51
2022-12-04T00:42:06.167Z,58.51
2022-12-04T00:47:13.318Z,58.69
2022-12-04T00:52:20.336Z,58.81
2022-12-04T00:57:27.313Z,58.56
2022-12-04T01:02:34.446Z,58.65
2022-12-04T01:07:41.516Z,58.64
2022-12-04T01:12:51.016Z,58.37
2022-12-04T01:17:57.757Z,58.42
2022-12-04T01:23:04.920Z,58.72
2022-12-04T01:28:11.609Z,58.35
2022-12-04T01:33:18.587Z,58.55
2022-12-04T01:38:25.759Z,58.63
2022-12-04T01:43:33.469Z,58.39
2022-12-04T01:48:41.958Z,58.69
2022-12-04T01:53:52.038Z,58.64
2022-12-04T01:59:00.344Z,58.42
2022-12-04T02:04:07.607Z,58.44
2022-12-04T02:09:15.167Z,58.28
2022-12-04T02:14:28.207Z,58.49
2022-12-04T02:19:52.086Z,58.33
2022-12-04T02:25:03.089Z,58.21
2022-12-04T02:30:12.030Z,58.59
2022-12-04T02:35:24.257Z,58.57
2022-12-04T02:40:35.758Z,58.59
2022-12-04T02:45:46.455Z,58.43
2022-12-04T02:50:56.186Z,58.51
2022-12-04T02:56:04.986Z,58.76
2022-12-04T03:01:20.387Z,58.48
2022-12-04T03:06:29.217Z,58.53
2022-12-04T03:11:37.395Z,58.66
2022-12-04T03:16:44.434Z,58.48
2022-12-04T03:21:54.307Z,58.60
2022-12-04T03:27:02.817Z,58.42
2022-12-04T03:32:12.648Z,58.71
2022-12-04T03:37:21.609Z,58.56
2022-12-04T03:42:29.998Z,58.55
2022-12-04T03:47:41.208Z,58.74
2022-12-04T03:52:50.488Z,58.69
2022-12-04T03:57:59.168Z,58.58
2022-12-04T04:03:08.762Z,58.79
2022-12-04T04:08:34.701Z,58.75
2022-12-04T04:14:02.586Z,58.68
2022-12-04T04:19:27.506Z,58.73
2022-12-04T04:24:39.414Z,58.81
2022-12-04T04:29:52.239Z,58.66
2022-12-04T04:35:02.962Z,58.88
2022-12-04T04:40:15.156Z,58.57
2022-12-04T04:45:25.418Z,58.54
2022-12-04T04:50:34.277Z,58.60
2022-12-04T04:55:41.215Z,58.57
2022-12-04T05:00:52.748Z,58.63
2022-12-04T05:05:59.946Z,58.85
2022-12-04T05:11:07.807Z,58.90
2022-12-04T05:16:15.540Z,58.64
2022-12-04T05:21:22.558Z,58.67
2022-12-04T05:26:29.472Z,58.58
2022-12-04T05:31:36.541Z,58.92
2022-12-04T05:36:43.417Z,59.00
2022-12-04T05:41:50.557Z,58.82
2022-12-04T05:46:57.450Z,58.60
2022-12-04T05:52:04.518Z,58.52
2022-12-04T05:57:11.607Z,58.83
2022-12-04T06:02:18.447Z,58.92
2022-12-04T06:07:26.068Z,58.91
2022-12-04T06:12:33.488Z,58.89
2022-12-04T06:17:40.355Z,58.84
2022-12-04T06:22:47.307Z,58.84
2022-12-04T06:27:54.952Z,59.04
2022-12-04T06:33:02.107Z,58.77
2022-12-04T06:38:09.797Z,59.03
2022-12-04T06:43:16.868Z,58.66
2022-12-04T06:48:24.078Z,59.02
2022-12-04T06:53:32.777Z,58.70
2022-12-04T06:58:39.697Z,58.89
2022-12-04T07:03:51.352Z,58.65
2022-12-04T07:09:00.347Z,58.91
2022-12-04T07:14:07.182Z,58.84
2022-12-04T07:19:14.711Z,58.96
2022-12-04T07:24:21.377Z,58.90
2022-12-04T07:29:28.068Z,58.87
2022-12-04T07:34:36.174Z,59.00
2022-12-04T07:39:43.343Z,58.92
2022-12-04T07:44:50.387Z,59.00
2022-12-04T07:49:57.518Z,58.91
2022-12-04T07:55:04.743Z,59.00
2022-12-04T08:00:13.328Z,59.08
2022-12-04T08:05:20.459Z,59.16
2022-12-04T08:10:27.928Z,59.27
2022-12-04T08:15:36.417Z,59.24
2022-12-04T08:20:43.897Z,59.30
2022-12-04T08:25:51.007Z,59.28
2022-12-04T08:30:57.960Z,59.24
2022-12-04T08:36:07.797Z,59.50
2022-12-04T08:41:16.148Z,59.38
2022-12-04T08:46:23.645Z,59.31
2022-12-04T08:51:31.477Z,59.44
2022-12-04T08:56:39.247Z,59.32
2022-12-04T09:01:46.248Z,59.20
2022-12-04T09:06:53.060Z,59.41
2022-12-04T09:12:00.349Z,59.29
2022-12-04T09:17:07.737Z,59.29
2022-12-04T09:22:15.227Z,59.30
2022-12-04T09:27:22.367Z,59.26
2022-12-04T09:32:29.347Z,59.33
2022-12-04T09:37:37.068Z,59.04
2022-12-04T09:42:46.939Z,59.15
2022-12-04T09:47:55.275Z,59.13
2022-12-04T09:53:04.488Z,59.08
2022-12-04T09:58:14.850Z,58.95
2022-12-04T10:03:22.750Z,59.00
2022-12-04T10:08:30.867Z,58.93
2022-12-04T10:13:57.147Z,58.73
2022-12-04T10:19:10.118Z,58.81
2022-12-04T10:24:26.109Z,58.80
2022-12-04T10:29:34.269Z,58.97
2022-12-04T10:34:45.400Z,59.13
2022-12-04T10:39:56.505Z,59.24
2022-12-04T10:45:03.818Z,59.34
2022-12-04T10:50:15.397Z,59.30
2022-12-04T10:55:31.606Z,59.30
2022-12-04T11:00:38.639Z,59.71
2022-12-04T11:05:48.108Z,59.84
2022-12-04T11:11:01.770Z,59.88
2022-12-04T11:16:09.517Z,59.91
2022-12-04T11:21:17.687Z,59.93
2022-12-04T11:26:33.357Z,60.04
2022-12-04T11:31:40.741Z,59.94
2022-12-04T11:36:52.337Z,59.85
2022-12-04T11:42:06.717Z,60.02
2022-12-04T11:47:17.907Z,60.07
2022-12-04T11:52:28.949Z,59.91
2022-12-04T11:57:38.770Z,60.08
2022-12-04T12:02:52.934Z,60.07
2022-12-04T12:08:08.179Z,59.88
2022-12-04T12:13:21.599Z,60.12
2022-12-04T12:18:37.015Z,60.10
2022-12-04T12:23:49.867Z,60.22
2022-12-04T12:29:18.948Z,60.12
2022-12-04T12:34:29.667Z,60.13
2022-12-04T12:39:40.398Z,60.16
2022-12-04T12:44:51.136Z,59.99
2022-12-04T12:50:02.147Z,60.04
2022-12-04T12:55:16.968Z,59.91
2022-12-04T13:00:24.806Z,60.00
2022-12-04T13:05:35.467Z,60.09
2022-12-04T13:10:46.272Z,60.31
2022-12-04T13:15:56.217Z,60.38
2022-12-04T13:21:06.847Z,60.34
2022-12-04T13:26:18.546Z,60.30
2022-12-04T13:31:31.926Z,60.47
2022-12-04T13:36:54.917Z,60.46
2022-12-04T13:42:02.775Z,60.52
2022-12-04T13:47:10.738Z,60.72
2022-12-04T13:52:25.427Z,60.36
2022-12-04T13:57:32.678Z,60.19
2022-12-04T14:02:39.872Z,60.36
2022-12-04T14:08:02.904Z,60.43
2022-12-04T14:13:20.654Z,60.14
2022-12-04T14:18:30.143Z,60.01
2022-12-04T14:23:41.017Z,59.97
2022-12-04T14:28:49.288Z,59.96
2022-12-04T14:33:58.766Z,59.77
2022-12-04T14:39:13.857Z,59.80
2022-12-04T14:44:24.979Z,59.59
2022-12-04T14:49:37.549Z,59.75
2022-12-04T14:54:49.077Z,59.76
2022-12-04T14:59:56.977Z,59.77
2022-12-04T15:05:04.308Z,59.69
2022-12-04T15:10:37.407Z,59.83
2022-12-04T15:15:48.333Z,59.68
2022-12-04T15:21:00.428Z,59.52
2022-12-04T15:26:09.968Z,59.54
2022-12-04T15:31:19.551Z,59.71
2022-12-04T15:36:42.894Z,59.64
2022-12-04T15:41:50.088Z,59.68
2022-12-04T15:46:58.595Z,59.68
2022-12-04T15:52:09.757Z,59.64
2022-12-04T15:57:23.246Z,59.58
2022-12-04T16:02:33.418Z,59.36
2022-12-04T16:07:50.237Z,59.55
2022-12-04T16:12:58.946Z,59.77
2022-12-04T16:18:07.577Z,59.51
2022-12-04T16:23:14.655Z,59.74
2022-12-04T16:28:21.497Z,59.92
2022-12-04T16:33:28.787Z,59.73
2022-12-04T16:38:35.998Z,59.65
2022-12-04T16:43:43.347Z,59.78
2022-12-04T16:48:50.557Z,59.85
2022-12-04T16:53:57.506Z,59.73
2022-12-04T16:59:08.958Z,59.94
2022-12-04T17:04:19.658Z,59.71
2022-12-04T17:09:26.736Z,59.77
2022-12-04T17:14:34.507Z,59.80
2022-12-04T17:19:41.515Z,59.58
2022-12-04T17:24:54.429Z,59.82
2022-12-04T17:30:03.031Z,59.97
2022-12-04T17:35:10.796Z,59.91
2022-12-04T17:40:18.109Z,59.78
2022-12-04T17:45:25.297Z,59.79
2022-12-04T17:50:32.619Z,59.78
2022-12-04T17:55:39.948Z,59.82
2022-12-04T18:00:47.204Z,59.84
2022-12-04T18:05:54.346Z,59.74
2022-12-04T18:11:05.780Z,59.81
2022-12-04T18:16:13.231Z,59.75
2022-12-04T18:21:20.378Z,59.82
2022-12-04T18:26:28.870Z,59.70
2022-12-04T18:31:36.130Z,59.77
2022-12-04T18:36:45.651Z,59.66
2022-12-04T18:41:53.078Z,59.59
2022-12-04T18:46:59.737Z,59.82
2022-12-04T18:52:06.645Z,59.97
2022-12-04T18:57:13.538Z,59.49
2022-12-04T19:02:20.298Z,59.81
2022-12-04T19:07:27.301Z,59.74
2022-12-04T19:12:34.278Z,59.85
2022-12-04T19:17:41.058Z,59.89
2022-12-04T19:22:49.552Z,59.69
2022-12-04T19:27:56.887Z,59.66
2022-12-04T19:33:03.715Z,59.84
2022-12-04T19:38:11.319Z,59.52
2022-12-04T19:43:18.438Z,59.60
2022-12-04T19:48:25.458Z,59.59
2022-12-04T19:53:36.365Z,59.47
2022-12-04T19:58:47.888Z,59.65
2022-12-04T20:03:54.868Z,59.72
2022-12-04T20:09:02.557Z,59.78
2022-12-04T20:14:09.568Z,59.84
2022-12-04T20:19:17.457Z,59.65
2022-12-04T20:24:24.518Z,59.83
2022-12-04T20:29:31.550Z,59.64
2022-12-04T20:34:43.465Z,59.41
2022-12-04T20:39:51.127Z,59.62
2022-12-04T20:44:58.357Z,59.53
2022-12-04T20:50:05.918Z,59.47
2022-12-04T20:55:13.477Z,59.64
2022-12-04T21:00:21.055Z,59.76
2022-12-04T21:05:28.117Z,59.89
2022-12-04T21:10:35.027Z,59.73
2022-12-04T21:15:59.307Z,59.48
2022-12-04T21:21:06.409Z,59.53
2022-12-04T21:26:13.268Z,59.68
2022-12-04T21:31:20.417Z,59.95
2022-12-04T21:36:27.757Z,59.69
2022-12-04T21:41:51.968Z,59.46
2022-12-04T21:46:59.426Z,59.53
2022-12-04T21:52:06.589Z,59.75
2022-12-04T21:57:13.635Z,59.69
2022-12-04T22:02:20.777Z,59.51
2022-12-04T22:07:28.183Z,59.67
2022-12-04T22:12:50.980Z,59.65
2022-12-04T22:17:58.447Z,59.79
2022-12-04T22:23:05.627Z,59.71
2022-12-04T22:28:12.627Z,59.80
2022-12-04T22:33:19.708Z,59.65
2022-12-04T22:38:26.848Z,59.80
2022-12-04T22:43:40.535Z,59.63
2022-12-04T22:48:48.499Z,59.69
2022-12-04T22:53:56.488Z,59.80
2022-12-04T22:59:03.567Z,59.59
2022-12-04T23:04:10.160Z,59.63
2022-12-04T23:09:17.858Z,59.48
2022-12-04T23:14:24.947Z,59.66
2022-12-04T23:19:32.388Z,59.51
2022-12-04T23:24:39.358Z,59.69
2022-12-04T23:29:54.440Z,59.71
2022-12-04T23:35:01.408Z,59.77
2022-12-04T23:40:09.358Z,59.56
2022-12-04T23:45:16.374Z,59.82
2022-12-04T23:50:23.298Z,59.62
2022-12-04T23:55:34.370Z,59.70
